Terminal Aerodrome Forecast
Issued by NWS Huntsville, AL

Home | Current Version | Previous Version | Text Only | Print | Product List | Glossary On
Versions: 1 2 3 4 5 6 7 8 9 10 11 12 13 14 15 16 17 18 19 20 21 22 23 24 25 26 27 28 29
000
FTUS44 KHUN 272320
TAFHSV
TAF
KHSV 272320Z 2800/2824 19010KT P6SM VCSH SCT050
     FM280200 21005KT P6SM BKN100
     FM281500 21010KT P6SM VCSH BKN050
     FM281800 25015G25KT 5SM -SHRA BR OVC040
      TEMPO 2820/2824 3SM -TSRA BR BKN025CB=

USA.gov is the U.S. government's official web portal to all federal, state and local government web resources and services.